Time;durP1;ratioP1;P1;durP2;ratioP2;P2;SDS_P1;SDS_P2;PMS_P1;PMS_P2;Temp;Humidity;BMP_temperature;BMP_pressure;BME280_temperature;BME280_humidity;BME280_pressure;Samples;Min_cycle;Max_cycle;Signal;HPM_P1;HPM_P2
2023/11/14 00:02:20;;;;;;;24.05;5.40;;;11.10;99.90;;;;;;4925137;29;20058;-76
2023/11/14 00:05:07;;;;;;;16.07;3.80;;;11.10;99.90;;;;;;4950679;29;20043;-76
2023/11/14 00:07:54;;;;;;;23.58;3.88;;;11.10;99.90;;;;;;4940621;29;20670;-77
2023/11/14 00:10:41;;;;;;;23.95;3.75;;;11.10;99.90;;;;;;4932077;29;20046;-77
2023/11/14 00:13:28;;;;;;;22.15;4.43;;;11.10;99.90;;;;;;4939136;29;20039;-76
2023/11/14 00:16:15;;;;;;;23.97;4.17;;;11.10;99.90;;;;;;4935141;29;20464;-77
2023/11/14 00:19:03;;;;;;;22.55;5.70;;;11.10;99.90;;;;;;4947941;29;20055;-76
2023/11/14 00:21:50;;;;;;;22.80;4.57;;;11.10;99.90;;;;;;4925114;29;20059;-76
2023/11/14 00:24:40;;;;;;;28.90;4.10;;;11.10;99.90;;;;;;4933192;29;20126;-75
2023/11/14 00:27:27;;;;;;;27.48;4.57;;;11.10;99.90;;;;;;4950626;29;20290;-75
2023/11/14 00:30:15;;;;;;;22.83;4.32;;;11.10;99.90;;;;;;4931221;29;20121;-75
2023/11/14 00:33:03;;;;;;;18.75;4.45;;;11.10;99.90;;;;;;4956460;29;20031;-75
2023/11/14 00:35:50;;;;;;;27.10;4.80;;;11.10;99.90;;;;;;4956682;29;20125;-75
2023/11/14 00:38:36;;;;;;;22.77;4.38;;;11.10;99.90;;;;;;4925223;29;20044;-76
2023/11/14 00:41:23;;;;;;;19.58;4.00;;;11.00;99.90;;;;;;4940383;29;20468;-76
2023/11/14 00:44:47;;;;;;;19.52;3.97;;;11.10;99.90;;;;;;4924412;29;20122;-76
2023/11/14 00:47:33;;;;;;;18.73;4.97;;;11.00;99.90;;;;;;4941239;29;20051;-77
2023/11/14 00:50:20;;;;;;;19.38;3.90;;;11.10;99.90;;;;;;4926187;29;20503;-76
2023/11/14 00:53:06;;;;;;;26.63;4.70;;;11.00;99.90;;;;;;4913580;29;20043;-76
2023/11/14 00:55:55;;;;;;;24.92;5.40;;;11.00;99.90;;;;;;4919249;29;20131;-76
2023/11/14 00:58:43;;;;;;;22.83;5.05;;;11.10;99.90;;;;;;4915914;29;20388;-76
2023/11/14 01:01:30;;;;;;;17.75;4.35;;;11.10;99.90;;;;;;4931538;29;20043;-76
2023/11/14 01:04:19;;;;;;;22.27;4.53;;;11.10;99.90;;;;;;4912666;29;20111;-77
2023/11/14 01:07:09;;;;;;;20.70;4.03;;;11.10;99.90;;;;;;4912238;29;20046;-77
2023/11/14 01:09:56;;;;;;;23.95;4.78;;;11.10;99.90;;;;;;4913273;29;20054;-77
2023/11/14 01:12:42;;;;;;;24.00;4.07;;;11.10;99.90;;;;;;4924655;29;20032;-76
2023/11/14 01:15:29;;;;;;;19.48;4.13;;;11.10;99.90;;;;;;4931340;29;20476;-76
2023/11/14 01:18:17;;;;;;;21.13;4.00;;;11.10;99.90;;;;;;4925944;29;20070;-75
2023/11/14 01:21:04;;;;;;;27.83;5.20;;;11.20;99.90;;;;;;4930629;29;20035;-76
2023/11/14 01:23:52;;;;;;;24.52;5.38;;;11.20;99.90;;;;;;4951366;29;20035;-77
2023/11/14 01:26:40;;;;;;;22.30;4.88;;;11.20;99.90;;;;;;4934277;29;20539;-77
2023/11/14 01:29:27;;;;;;;25.23;4.57;;;11.20;99.90;;;;;;4925615;29;20058;-77
2023/11/14 01:32:14;;;;;;;26.67;4.75;;;11.30;99.90;;;;;;4909003;29;20039;-76
2023/11/14 01:35:02;;;;;;;24.08;5.45;;;11.30;99.90;;;;;;4925369;29;20039;-75
2023/11/14 01:37:49;;;;;;;20.35;5.30;;;11.40;99.90;;;;;;4932064;28;20062;-75
2023/11/14 01:40:36;;;;;;;25.77;4.72;;;11.40;99.90;;;;;;4944060;29;20043;-76
2023/11/14 01:43:25;;;;;;;25.63;4.83;;;11.40;99.90;;;;;;4916877;29;20073;-77
2023/11/14 01:46:16;;;;;;;25.33;4.90;;;11.40;99.90;;;;;;4943074;29;20042;-76
2023/11/14 01:49:04;;;;;;;20.85;4.20;;;11.50;99.90;;;;;;4925304;29;20051;-76
2023/11/14 01:51:51;;;;;;;30.88;5.07;;;11.50;99.90;;;;;;4912129;29;20036;-75
2023/11/14 01:54:40;;;;;;;22.95;4.03;;;11.50;99.90;;;;;;4907478;29;20044;-74
2023/11/14 01:57:28;;;;;;;18.90;4.60;;;11.60;99.90;;;;;;4930650;29;20039;-76
2023/11/14 02:00:17;;;;;;;19.05;3.78;;;11.60;99.90;;;;;;4943570;29;20050;-76
2023/11/14 02:03:04;;;;;;;21.75;4.47;;;11.60;99.90;;;;;;4912516;29;20046;-76
2023/11/14 02:05:52;;;;;;;21.58;4.43;;;11.60;99.90;;;;;;4923761;29;20372;-76
2023/11/14 02:08:39;;;;;;;19.33;3.85;;;11.60;99.90;;;;;;4923757;29;20045;-76
2023/11/14 02:11:27;;;;;;;19.13;4.07;;;11.60;99.90;;;;;;4922638;29;20043;-76
2023/11/14 02:14:15;;;;;;;24.95;4.63;;;11.60;99.90;;;;;;4927829;29;20576;-77
2023/11/14 02:17:02;;;;;;;18.60;3.67;;;11.60;99.90;;;;;;4928830;29;20035;-76
2023/11/14 02:19:49;;;;;;;19.60;4.20;;;11.60;99.90;;;;;;4928957;29;20039;-76
2023/11/14 02:22:37;;;;;;;20.35;3.83;;;11.70;99.90;;;;;;4930597;29;20074;-77
2023/11/14 02:25:25;;;;;;;19.88;3.33;;;11.70;99.90;;;;;;4923177;29;20495;-77
2023/11/14 02:28:13;;;;;;;22.97;4.27;;;11.70;99.90;;;;;;4932798;29;20047;-76
2023/11/14 02:31:01;;;;;;;17.17;3.67;;;11.80;99.90;;;;;;4934301;29;20416;-76
2023/11/14 02:33:47;;;;;;;20.48;4.45;;;11.80;99.90;;;;;;4910192;29;20042;-76
2023/11/14 02:36:34;;;;;;;25.45;4.25;;;11.80;99.90;;;;;;4951272;29;20051;-75
2023/11/14 02:39:22;;;;;;;20.73;4.38;;;11.80;99.90;;;;;;4904789;29;20047;-75
2023/11/14 02:42:11;;;;;;;22.80;4.35;;;11.80;99.90;;;;;;4933029;29;20055;-76
2023/11/14 02:44:59;;;;;;;17.65;4.63;;;11.90;99.90;;;;;;4945858;29;20035;-76
2023/11/14 02:47:48;;;;;;;24.17;5.20;;;11.80;99.90;;;;;;4932850;29;20046;-76
2023/11/14 02:50:53;;;;;;;23.42;5.07;;;11.80;99.90;;;;;;4934172;29;20058;-76
2023/11/14 02:53:41;;;;;;;21.42;4.35;;;11.90;99.90;;;;;;4918474;29;20047;-76
2023/11/14 02:56:28;;;;;;;20.90;3.55;;;11.90;99.90;;;;;;4925616;29;20036;-76
2023/11/14 02:59:16;;;;;;;24.95;3.92;;;11.90;99.90;;;;;;4924599;29;20043;-76
2023/11/14 03:02:04;;;;;;;17.95;4.00;;;11.80;99.90;;;;;;4918355;29;20102;-76
2023/11/14 03:04:52;;;;;;;23.30;4.13;;;11.90;99.90;;;;;;4901878;29;20050;-76
2023/11/14 03:07:38;;;;;;;23.20;4.50;;;11.80;99.90;;;;;;4940389;29;20074;-76
2023/11/14 03:10:25;;;;;;;24.10;5.32;;;11.80;99.90;;;;;;4946140;29;20066;-76
2023/11/14 03:13:12;;;;;;;23.95;4.05;;;11.80;99.90;;;;;;4940092;29;20043;-76
2023/11/14 03:15:59;;;;;;;22.75;4.28;;;11.80;99.90;;;;;;4920446;29;20040;-76
2023/11/14 03:18:45;;;;;;;20.80;4.82;;;11.80;99.90;;;;;;4905713;29;20047;-78
2023/11/14 03:21:32;;;;;;;24.13;3.72;;;11.80;99.90;;;;;;4913299;29;20047;-75
2023/11/14 03:24:19;;;;;;;28.17;5.20;;;11.80;99.90;;;;;;4932702;29;20049;-77
2023/11/14 03:27:10;;;;;;;21.38;4.07;;;11.80;99.90;;;;;;4946805;29;20066;-75
2023/11/14 03:29:57;;;;;;;24.95;4.47;;;11.90;99.90;;;;;;4921251;29;20039;-77
2023/11/14 03:32:43;;;;;;;18.65;3.72;;;11.90;99.90;;;;;;4946031;29;20361;-76
2023/11/14 03:35:30;;;;;;;23.67;3.88;;;11.80;99.90;;;;;;4933451;28;20047;-77
2023/11/14 03:38:18;;;;;;;20.33;4.38;;;11.90;99.90;;;;;;4929289;29;20098;-77
2023/11/14 03:41:05;;;;;;;27.08;4.50;;;11.90;99.90;;;;;;4931586;29;20085;-78
2023/11/14 03:43:53;;;;;;;25.05;4.53;;;11.90;99.90;;;;;;4944672;29;20050;-77
2023/11/14 03:46:42;;;;;;;25.67;5.35;;;11.80;99.90;;;;;;4932407;29;20063;-75
2023/11/14 03:49:28;;;;;;;21.25;4.35;;;11.80;99.90;;;;;;4914269;29;20055;-75
2023/11/14 03:52:15;;;;;;;25.52;4.03;;;11.80;99.90;;;;;;4915006;29;20039;-75
2023/11/14 03:55:02;;;;;;;20.20;4.50;;;11.90;99.90;;;;;;4932135;29;20498;-76
2023/11/14 03:57:50;;;;;;;24.75;4.72;;;11.90;99.90;;;;;;4909345;29;20485;-76
2023/11/14 04:00:37;;;;;;;22.53;4.00;;;11.90;99.90;;;;;;4921970;29;20043;-76
2023/11/14 04:03:23;;;;;;;17.42;3.75;;;11.90;99.90;;;;;;4939883;29;20579;-76
2023/11/14 04:06:11;;;;;;;21.25;5.65;;;11.90;99.90;;;;;;4923268;29;20127;-76
2023/11/14 04:08:57;;;;;;;19.42;3.60;;;11.90;99.90;;;;;;4926273;29;20039;-76
2023/11/14 04:11:46;;;;;;;28.15;4.60;;;11.90;99.90;;;;;;4933896;29;20536;-77
2023/11/14 04:14:33;;;;;;;23.48;4.22;;;11.90;99.90;;;;;;4926789;29;20469;-76
2023/11/14 04:17:20;;;;;;;21.20;4.65;;;11.90;99.90;;;;;;4938949;29;20090;-76
2023/11/14 04:20:10;;;;;;;25.17;4.45;;;11.80;99.90;;;;;;4921355;29;20134;-76
2023/11/14 04:22:58;;;;;;;26.77;4.60;;;11.80;99.90;;;;;;4939327;29;20043;-76
2023/11/14 04:25:45;;;;;;;18.13;4.22;;;11.80;99.90;;;;;;4910806;29;20047;-76
2023/11/14 04:28:32;;;;;;;29.35;5.57;;;11.80;99.90;;;;;;4939900;29;20043;-76
2023/11/14 04:31:19;;;;;;;23.58;4.57;;;11.80;99.90;;;;;;4930923;29;20039;-77
2023/11/14 04:34:06;;;;;;;23.42;3.58;;;11.80;99.90;;;;;;4945759;29;20638;-76
2023/11/14 04:36:55;;;;;;;23.95;4.18;;;11.80;99.90;;;;;;4959005;29;20098;-76
2023/11/14 04:39:42;;;;;;;17.83;3.60;;;11.80;99.90;;;;;;4944527;29;20546;-77
2023/11/14 04:42:29;;;;;;;19.27;3.55;;;11.70;99.90;;;;;;4916880;29;20074;-77
2023/11/14 04:45:17;;;;;;;22.35;4.00;;;11.80;99.90;;;;;;4916742;29;20047;-76
2023/11/14 04:48:04;;;;;;;17.40;3.42;;;11.80;99.90;;;;;;4943556;29;20134;-76
2023/11/14 04:50:51;;;;;;;19.58;3.53;;;11.80;99.90;;;;;;4916615;29;20476;-77
2023/11/14 04:53:38;;;;;;;22.08;3.72;;;11.70;99.90;;;;;;4938146;29;20040;-76
2023/11/14 04:56:26;;;;;;;15.83;3.40;;;11.70;99.90;;;;;;4898888;29;20040;-75
2023/11/14 04:59:13;;;;;;;22.75;4.32;;;11.70;99.90;;;;;;4919103;29;20051;-75
2023/11/14 05:02:00;;;;;;;25.57;4.73;;;11.80;99.90;;;;;;4945085;29;20039;-75
2023/11/14 05:04:51;;;;;;;21.67;4.13;;;11.70;99.90;;;;;;4929756;29;20039;-77
2023/11/14 05:07:39;;;;;;;23.33;3.92;;;11.80;99.90;;;;;;4942449;29;20094;-76
2023/11/14 05:10:26;;;;;;;19.83;3.72;;;11.70;99.90;;;;;;4921723;29;20054;-76
2023/11/14 05:13:16;;;;;;;18.95;4.05;;;11.70;99.90;;;;;;4916211;29;20086;-74
2023/11/14 05:16:04;;;;;;;24.25;4.63;;;11.70;99.90;;;;;;4929246;29;20069;-76
2023/11/14 05:18:51;;;;;;;20.67;3.85;;;11.70;99.90;;;;;;4943907;29;20079;-74
2023/11/14 05:21:39;;;;;;;19.85;4.60;;;11.60;99.90;;;;;;4914412;29;20122;-75
2023/11/14 05:24:26;;;;;;;24.10;4.03;;;11.70;99.90;;;;;;4927877;29;20044;-75
2023/11/14 05:27:13;;;;;;;20.57;4.13;;;11.70;99.90;;;;;;4936147;29;20404;-75
2023/11/14 05:30:01;;;;;;;23.55;3.95;;;11.70;99.90;;;;;;4935914;29;20052;-76
2023/11/14 05:32:48;;;;;;;25.25;5.43;;;11.70;99.90;;;;;;4943937;29;20035;-76
2023/11/14 05:35:35;;;;;;;19.90;4.57;;;11.70;99.90;;;;;;4943227;29;20043;-76
2023/11/14 05:38:29;;;;;;;18.17;3.67;;;11.70;99.90;;;;;;4917927;29;20039;-76
2023/11/14 05:41:17;;;;;;;20.80;4.10;;;11.70;99.90;;;;;;4927081;29;20062;-77
2023/11/14 05:44:04;;;;;;;21.35;4.45;;;11.70;99.90;;;;;;4943209;29;20472;-75
2023/11/14 05:46:51;;;;;;;19.70;3.78;;;11.80;99.90;;;;;;4926532;29;20050;-78
2023/11/14 05:49:38;;;;;;;22.83;3.67;;;11.80;99.90;;;;;;4927526;29;20046;-76
2023/11/14 05:52:26;;;;;;;25.55;4.68;;;11.80;99.90;;;;;;4917557;29;20035;-76
2023/11/14 05:55:13;;;;;;;19.57;3.73;;;11.80;99.90;;;;;;4914818;29;20031;-77
2023/11/14 05:58:01;;;;;;;25.10;4.50;;;11.70;99.90;;;;;;4924849;29;20040;-77
2023/11/14 06:00:47;;;;;;;;;;;11.60;99.90;;;;;;4911688;29;20036;-77
2023/11/14 06:03:33;;;;;;;26.85;4.65;;;11.60;99.90;;;;;;4925291;29;19976;-77
2023/11/14 06:06:21;;;;;;;21.65;4.82;;;11.50;99.90;;;;;;4899926;29;20043;-76
2023/11/14 06:09:12;;;;;;;25.98;4.65;;;11.50;99.90;;;;;;4910441;29;20039;-76
2023/11/14 06:12:00;;;;;;;24.50;5.35;;;11.50;99.90;;;;;;4943746;29;20031;-76
2023/11/14 06:14:47;;;;;;;15.77;3.72;;;11.40;99.90;;;;;;4929381;29;20031;-76
2023/11/14 06:17:35;;;;;;;20.23;4.97;;;11.30;99.90;;;;;;4932302;29;20043;-75
2023/11/14 06:20:22;;;;;;;22.48;4.00;;;11.30;99.90;;;;;;4943635;29;20045;-75
2023/11/14 06:23:10;;;;;;;23.98;5.03;;;11.30;99.90;;;;;;4925645;29;20044;-75
2023/11/14 06:25:58;;;;;;;22.00;5.28;;;11.30;99.90;;;;;;4911523;29;20074;-76
2023/11/14 06:28:45;;;;;;;27.52;4.50;;;11.20;99.90;;;;;;4923889;29;20048;-76
2023/11/14 06:31:32;;;;;;;26.20;4.28;;;11.20;99.90;;;;;;4923689;29;20198;-76
2023/11/14 06:34:21;;;;;;;25.10;5.27;;;11.10;99.90;;;;;;4915997;29;20039;-76
2023/11/14 06:37:08;;;;;;;19.83;4.30;;;11.10;99.90;;;;;;4933522;29;20095;-76
2023/11/14 06:39:55;;;;;;;20.17;4.47;;;11.20;99.90;;;;;;4924667;29;20064;-76
2023/11/14 06:42:43;;;;;;;17.20;4.37;;;11.20;99.90;;;;;;4923965;29;20114;-75
2023/11/14 06:45:30;;;;;;;22.77;4.40;;;11.20;99.90;;;;;;4935332;29;20468;-75
2023/11/14 06:48:18;;;;;;;24.23;4.63;;;11.30;99.90;;;;;;4954729;29;20043;-75
2023/11/14 06:51:07;;;;;;;22.00;4.23;;;11.40;99.90;;;;;;4911401;29;20524;-76
2023/11/14 06:53:55;;;;;;;26.40;4.85;;;11.50;99.90;;;;;;4927278;28;20126;-75
2023/11/14 06:56:42;;;;;;;25.52;5.35;;;11.50;99.90;;;;;;4937868;29;20040;-76
2023/11/14 06:59:30;;;;;;;16.65;3.70;;;11.60;99.90;;;;;;4940349;29;20773;-76
2023/11/14 07:02:17;;;;;;;;;;;11.60;99.90;;;;;;4918638;29;20130;-76
2023/11/14 07:05:05;;;;;;;17.13;3.28;;;11.60;99.90;;;;;;4935901;29;19998;-76
2023/11/14 07:07:54;;;;;;;21.65;4.47;;;11.70;99.90;;;;;;4924059;29;20416;-76
2023/11/14 07:10:40;;;;;;;16.00;3.58;;;11.60;99.90;;;;;;4925676;29;20103;-77
2023/11/14 07:13:28;;;;;;;18.58;3.38;;;11.70;99.90;;;;;;4940684;29;20031;-80
2023/11/14 07:16:15;;;;;;;17.42;3.90;;;11.70;99.90;;;;;;4920820;29;20053;-79
2023/11/14 07:19:02;;;;;;;20.25;3.90;;;11.70;99.90;;;;;;4935554;29;20043;-79
2023/11/14 07:21:49;;;;;;;16.03;3.97;;;11.70;99.90;;;;;;4916626;29;20053;-77
2023/11/14 07:24:37;;;;;;;16.23;4.03;;;11.80;99.90;;;;;;4931389;29;20593;-76
2023/11/14 07:27:25;;;;;;;18.00;3.67;;;11.80;99.90;;;;;;4903457;29;20548;-76
2023/11/14 07:30:13;;;;;;;15.32;3.22;;;11.80;99.90;;;;;;4913546;29;20080;-76
2023/11/14 07:33:01;;;;;;;15.02;3.30;;;11.80;99.90;;;;;;4933255;29;20042;-75
2023/11/14 07:35:49;;;;;;;17.33;3.47;;;11.80;99.90;;;;;;4923698;29;20050;-75
2023/11/14 07:38:36;;;;;;;15.05;3.05;;;11.80;99.90;;;;;;4921297;29;20466;-75
2023/11/14 07:41:23;;;;;;;18.33;3.80;;;11.80;99.90;;;;;;4929422;29;20062;-76
2023/11/14 07:44:11;;;;;;;17.92;3.42;;;11.90;99.90;;;;;;4945415;29;20106;-76
2023/11/14 07:46:58;;;;;;;16.65;3.55;;;11.90;99.90;;;;;;4915790;28;20417;-76
2023/11/14 07:49:46;;;;;;;16.15;2.88;;;11.90;99.90;;;;;;4932870;29;20055;-76
2023/11/14 07:52:33;;;;;;;15.68;3.58;;;12.00;99.90;;;;;;4923429;29;20040;-77
2023/11/14 07:55:20;;;;;;;15.00;3.25;;;11.90;99.90;;;;;;4928966;28;20039;-76
2023/11/14 07:58:06;;;;;;;20.40;4.00;;;12.00;99.90;;;;;;4916018;29;20031;-76
2023/11/14 08:00:58;;;;;;;20.63;4.00;;;11.90;99.90;;;;;;4943168;29;20150;-76
2023/11/14 08:03:46;;;;;;;14.05;3.15;;;12.00;99.90;;;;;;4913681;29;20058;-76
2023/11/14 08:06:33;;;;;;;22.10;4.25;;;12.00;99.90;;;;;;4909641;29;20363;-77
2023/11/14 08:09:20;;;;;;;15.80;3.28;;;12.00;99.90;;;;;;4945411;29;20047;-76
2023/11/14 08:12:08;;;;;;;24.85;4.85;;;12.00;99.90;;;;;;4953824;29;20050;-76
2023/11/14 08:14:55;;;;;;;21.80;5.00;;;12.00;99.90;;;;;;4953311;29;20054;-76
2023/11/14 08:17:42;;;;;;;15.75;3.78;;;12.10;99.90;;;;;;4950305;29;20122;-75
2023/11/14 08:20:30;;;;;;;21.33;3.80;;;12.10;99.90;;;;;;4942916;28;20043;-75
2023/11/14 08:23:18;;;;;;;20.00;4.03;;;12.10;99.90;;;;;;4934780;29;20318;-76
2023/11/14 08:26:05;;;;;;;22.30;4.03;;;12.10;99.90;;;;;;4932361;29;20279;-75
2023/11/14 08:28:52;;;;;;;21.90;4.17;;;12.20;99.90;;;;;;4930540;29;20046;-76
2023/11/14 08:31:40;;;;;;;20.23;3.85;;;12.10;99.90;;;;;;4931908;29;20502;-76
2023/11/14 08:34:27;;;;;;;19.27;4.00;;;12.10;99.90;;;;;;4957081;29;20039;-76
2023/11/14 08:37:14;;;;;;;26.38;5.03;;;12.10;99.90;;;;;;4948342;29;20043;-76
2023/11/14 08:40:03;;;;;;;18.70;3.63;;;12.10;99.90;;;;;;4916835;29;20125;-77
2023/11/14 08:42:51;;;;;;;20.65;4.38;;;12.20;99.90;;;;;;4922831;29;20047;-77
2023/11/14 08:45:39;;;;;;;24.50;5.30;;;12.20;99.90;;;;;;4898780;29;20040;-76
2023/11/14 08:48:26;;;;;;;27.00;4.22;;;12.20;99.90;;;;;;4906174;29;20064;-76
2023/11/14 08:51:16;;;;;;;22.17;4.55;;;12.20;99.90;;;;;;4893359;29;20123;-76
2023/11/14 08:54:03;;;;;;;26.35;6.30;;;12.20;99.90;;;;;;4897629;29;20044;-76
2023/11/14 08:56:49;;;;;;;19.17;4.30;;;12.20;99.90;;;;;;4911634;29;20047;-75
2023/11/14 08:59:35;;;;;;;20.05;4.18;;;12.30;99.90;;;;;;4911053;29;20283;-75
2023/11/14 09:02:23;;;;;;;19.13;3.75;;;12.20;99.90;;;;;;4887049;29;20130;-75
2023/11/14 09:05:09;;;;;;;18.17;3.97;;;12.30;99.90;;;;;;4918382;29;20119;-75
2023/11/14 09:07:56;;;;;;;21.48;4.72;;;12.30;99.90;;;;;;4914317;29;20355;-76
2023/11/14 09:10:44;;;;;;;19.73;3.53;;;12.20;99.90;;;;;;4926935;28;20122;-75
2023/11/14 09:13:31;;;;;;;16.67;3.43;;;12.20;99.90;;;;;;4908710;29;20072;-76
2023/11/14 09:16:18;;;;;;;23.17;4.40;;;12.20;99.90;;;;;;4912242;29;20268;-76
2023/11/14 09:19:06;;;;;;;23.87;4.30;;;12.30;99.90;;;;;;4917597;29;20500;-75
2023/11/14 09:21:52;;;;;;;;;;;12.30;99.90;;;;;;4894461;29;20116;-76
2023/11/14 09:24:40;;;;;;;29.20;4.85;;;12.30;99.90;;;;;;4918250;29;20047;-76
2023/11/14 09:27:27;;;;;;;22.70;4.80;;;12.20;99.90;;;;;;4905577;29;20409;-75
2023/11/14 09:30:16;;;;;;;24.42;4.65;;;12.20;99.90;;;;;;4894102;29;20055;-75
2023/11/14 09:33:03;;;;;;;21.13;4.28;;;12.20;99.90;;;;;;4912206;29;20107;-76
2023/11/14 09:35:51;;;;;;;19.92;4.32;;;12.10;99.90;;;;;;4881947;29;20048;-75
2023/11/14 09:38:38;;;;;;;20.15;4.55;;;12.20;99.90;;;;;;4915745;29;20048;-75
2023/11/14 09:41:26;;;;;;;18.33;4.15;;;12.20;99.90;;;;;;4923016;29;20051;-75
2023/11/14 09:44:13;;;;;;;17.60;4.27;;;12.20;99.90;;;;;;4937314;29;20039;-76
2023/11/14 09:47:02;;;;;;;16.90;3.50;;;12.20;99.90;;;;;;4929184;29;20632;-75
2023/11/14 09:49:49;;;;;;;;;;;12.20;99.90;;;;;;4923170;29;20052;-76
2023/11/14 09:52:36;;;;;;;21.23;4.13;;;12.20;99.90;;;;;;4925559;29;19997;-76
2023/11/14 09:55:23;;;;;;;20.33;4.23;;;12.20;99.90;;;;;;4909993;29;20046;-75
2023/11/14 09:58:11;;;;;;;17.67;4.88;;;12.20;99.90;;;;;;4923258;29;20155;-77
2023/11/14 10:01:00;;;;;;;22.05;5.07;;;12.20;99.90;;;;;;4925718;29;20515;-76
2023/11/14 10:03:47;;;;;;;;;;;12.20;99.90;;;;;;4927379;29;20050;-75
2023/11/14 10:06:34;;;;;;;21.27;4.57;;;12.20;99.90;;;;;;4939295;29;19925;-75
2023/11/14 10:09:22;;;;;;;19.73;4.80;;;12.20;99.90;;;;;;4933492;29;20067;-75
2023/11/14 10:12:09;;;;;;;20.50;4.38;;;12.30;99.90;;;;;;4936658;29;20752;-76
2023/11/14 10:14:56;;;;;;;17.52;3.80;;;12.20;99.90;;;;;;4926737;29;20032;-75
2023/11/14 10:17:47;;;;;;;26.33;4.93;;;12.20;99.90;;;;;;4934416;29;20067;-75
2023/11/14 10:20:41;;;;;;;17.55;3.78;;;12.20;99.90;;;;;;4914159;29;20286;-74
2023/11/14 10:23:35;;;;;;;20.73;4.43;;;12.20;99.90;;;;;;4924995;29;20039;-75
2023/11/14 10:26:23;;;;;;;22.88;5.18;;;12.20;99.90;;;;;;4924845;29;20182;-76
2023/11/14 10:29:10;;;;;;;21.88;5.05;;;12.10;99.90;;;;;;4928731;29;20105;-75
2023/11/14 10:31:58;;;;;;;22.63;4.67;;;12.10;99.90;;;;;;4910244;29;20036;-75
2023/11/14 10:34:45;;;;;;;21.95;4.13;;;12.10;99.90;;;;;;4935236;29;20031;-76
2023/11/14 10:37:35;;;;;;;16.50;4.07;;;12.10;99.90;;;;;;4942994;29;20065;-76
2023/11/14 10:40:22;;;;;;;25.98;5.18;;;12.20;99.90;;;;;;4943862;29;20062;-75
2023/11/14 10:43:09;;;;;;;21.55;4.43;;;12.30;99.90;;;;;;4930815;29;20082;-76
2023/11/14 10:45:55;;;;;;;28.27;5.47;;;12.50;99.90;;;;;;4921797;29;20050;-75
2023/11/14 10:48:43;;;;;;;21.10;4.78;;;12.70;99.90;;;;;;4926154;29;20050;-76
2023/11/14 10:51:33;;;;;;;16.15;4.18;;;12.80;99.90;;;;;;4927255;29;20046;-75
2023/11/14 10:54:23;;;;;;;17.48;4.18;;;12.90;99.90;;;;;;4943567;29;20053;-76
2023/11/14 10:57:11;;;;;;;19.73;3.92;;;13.40;99.90;;;;;;4959106;28;20039;-76
2023/11/14 10:59:58;;;;;;;22.67;4.50;;;13.20;99.90;;;;;;4919187;29;20036;-76
2023/11/14 11:02:50;;;;;;;28.08;5.45;;;13.00;99.90;;;;;;4939173;29;20040;-76
2023/11/14 11:05:37;;;;;;;22.58;4.47;;;12.90;99.90;;;;;;4902493;29;20055;-75
2023/11/14 11:08:25;;;;;;;24.95;4.55;;;12.80;99.90;;;;;;4925389;29;20134;-76
2023/11/14 11:11:13;;;;;;;;;;;12.70;99.90;;;;;;4931094;29;20043;-76
2023/11/14 11:14:02;;;;;;;19.45;4.03;;;12.60;99.90;;;;;;4933090;29;19919;-76
2023/11/14 11:16:51;;;;;;;18.50;4.65;;;12.60;99.90;;;;;;4928046;29;20036;-75
2023/11/14 11:19:38;;;;;;;22.27;4.53;;;12.50;99.90;;;;;;4918996;29;20047;-75
2023/11/14 11:22:27;;;;;;;19.57;4.47;;;12.50;99.90;;;;;;4940179;29;20035;-75
2023/11/14 11:25:26;;;;;;;25.33;4.78;;;12.50;99.90;;;;;;4932818;29;20098;-75
2023/11/14 11:28:32;;;;;;;20.77;5.13;;;12.50;99.90;;;;;;4928078;29;20338;-75
2023/11/14 11:31:24;;;;;;;23.77;4.35;;;12.50;99.90;;;;;;4931887;29;20519;-76
2023/11/14 11:34:28;;;;;;;20.05;4.18;;;12.50;99.90;;;;;;4925525;29;20126;-76
2023/11/14 11:38:09;;;;;;;17.55;4.13;;;12.60;99.90;;;;;;4936994;29;20067;-76
2023/11/14 11:41:11;;;;;;;25.10;4.45;;;12.60;99.90;;;;;;4920296;29;20051;-75
2023/11/14 11:44:05;;;;;;;20.10;4.57;;;12.60;99.90;;;;;;4939195;29;20500;-75
2023/11/14 11:46:53;;;;;;;20.30;4.28;;;12.60;99.90;;;;;;4933453;29;20115;-75
2023/11/14 11:49:40;;;;;;;24.53;4.70;;;12.60;99.90;;;;;;4949043;29;20504;-75
2023/11/14 11:52:27;;;;;;;18.35;3.67;;;12.60;99.90;;;;;;4927457;29;20903;-76
2023/11/14 11:55:19;;;;;;;18.47;4.13;;;12.60;99.90;;;;;;4942128;29;20035;-76
2023/11/14 11:58:09;;;;;;;25.33;4.15;;;12.70;99.90;;;;;;4925289;29;20039;-76
2023/11/14 12:01:19;;;;;;;19.10;4.10;;;12.70;99.90;;;;;;4948276;29;20039;-76
2023/11/14 12:04:06;;;;;;;15.65;4.03;;;12.70;99.90;;;;;;4945687;29;20042;-76
2023/11/14 12:06:55;;;;;;;17.58;4.18;;;12.70;99.90;;;;;;4945287;29;20035;-76
2023/11/14 12:09:42;;;;;;;18.17;3.35;;;12.70;99.90;;;;;;4928144;29;20134;-76
2023/11/14 12:12:35;;;;;;;18.45;4.20;;;12.70;99.90;;;;;;4939073;29;20484;-76
2023/11/14 12:15:31;;;;;;;18.70;3.50;;;12.60;99.90;;;;;;4937888;29;20046;-76
2023/11/14 12:18:19;;;;;;;14.82;3.67;;;12.60;99.90;;;;;;4946658;29;20047;-76
2023/11/14 12:21:08;;;;;;;19.33;3.53;;;12.60;99.90;;;;;;4919178;29;20043;-75
2023/11/14 12:23:55;;;;;;;;;;;12.50;99.90;;;;;;4926007;29;20138;-76
2023/11/14 12:26:42;;;;;;;16.67;3.75;;;12.60;99.90;;;;;;4941399;29;19965;-75
2023/11/14 12:29:30;;;;;;;15.07;3.42;;;12.70;99.90;;;;;;4912981;29;20055;-75
2023/11/14 12:32:17;;;;;;;12.85;3.45;;;12.60;99.90;;;;;;4929728;29;20035;-76
2023/11/14 12:35:05;;;;;;;21.75;4.22;;;12.60;99.90;;;;;;4920016;29;20106;-76
2023/11/14 12:38:00;;;;;;;15.27;3.22;;;12.80;99.90;;;;;;4940024;29;20551;-76
2023/11/14 12:40:52;;;;;;;19.40;4.20;;;13.10;99.90;;;;;;4912445;29;20059;-75
2023/11/14 12:43:39;;;;;;;16.77;3.75;;;13.10;99.90;;;;;;4914383;29;20046;-76
2023/11/14 12:46:33;;;;;;;16.63;3.72;;;13.20;99.90;;;;;;4930709;29;20046;-76
2023/11/14 12:49:22;;;;;;;14.65;3.92;;;13.60;99.90;;;;;;4922450;29;20142;-75
2023/11/14 12:52:09;;;;;;;19.05;3.58;;;13.60;99.90;;;;;;4920234;29;20050;-76
2023/11/14 12:55:01;;;;;;;19.23;3.92;;;13.20;99.90;;;;;;4915654;29;20040;-76
2023/11/14 12:57:49;;;;;;;19.92;4.35;;;12.90;99.90;;;;;;4932897;29;20031;-75
2023/11/14 13:00:36;;;;;;;17.48;3.83;;;12.70;99.90;;;;;;4930940;29;20055;-76
2023/11/14 13:03:23;;;;;;;20.23;4.70;;;12.60;99.90;;;;;;4939920;28;20043;-76
2023/11/14 13:06:11;;;;;;;17.70;3.97;;;12.50;99.90;;;;;;4922569;29;20472;-76
2023/11/14 13:08:58;;;;;;;13.73;3.27;;;12.50;99.90;;;;;;4903023;29;20050;-75
2023/11/14 13:11:45;;;;;;;19.85;3.50;;;12.40;99.90;;;;;;4917039;29;20130;-76
2023/11/14 13:14:33;;;;;;;15.50;3.23;;;12.30;99.90;;;;;;4938120;29;20077;-76
2023/11/14 13:17:20;;;;;;;7.78;2.08;;;12.30;99.90;;;;;;4930289;29;20350;-76
2023/11/14 13:20:09;;;;;;;10.05;2.30;;;12.70;99.90;;;;;;4898105;29;20169;-76
2023/11/14 13:22:57;;;;;;;6.82;2.00;;;12.90;99.90;;;;;;4920936;29;20047;-76
2023/11/14 13:25:44;;;;;;;;;;;13.10;99.90;;;;;;4922161;29;20039;-76
2023/11/14 13:28:32;;;;;;;17.07;3.70;;;13.10;99.90;;;;;;4919343;29;19957;-76
2023/11/14 13:31:19;;;;;;;11.70;2.78;;;13.10;99.90;;;;;;4943166;29;20032;-75
2023/11/14 13:34:07;;;;;;;12.43;2.75;;;12.90;99.90;;;;;;4942272;29;20384;-77
2023/11/14 13:36:54;;;;;;;13.20;2.60;;;12.60;99.90;;;;;;4930491;29;20125;-76
2023/11/14 13:39:41;;;;;;;11.95;2.58;;;12.50;99.90;;;;;;4935432;29;20138;-75
2023/11/14 13:42:28;;;;;;;14.63;2.95;;;12.40;99.90;;;;;;4927261;29;20349;-76
2023/11/14 13:45:15;;;;;;;13.65;2.50;;;12.30;99.90;;;;;;4953832;29;20472;-76
2023/11/14 13:48:04;;;;;;;11.90;2.40;;;12.20;99.90;;;;;;4917188;29;20086;-77
2023/11/14 13:50:51;;;;;;;15.55;3.00;;;12.30;99.90;;;;;;4921633;29;20039;-76
2023/11/14 13:53:39;;;;;;;11.02;2.72;;;12.40;99.90;;;;;;4924723;29;20213;-77
2023/11/14 13:56:25;;;;;;;;;;;12.50;99.90;;;;;;4899830;29;20066;-76
2023/11/14 13:59:14;;;;;;;15.02;3.15;;;12.50;99.90;;;;;;4928571;29;19942;-76
2023/11/14 14:02:03;;;;;;;17.63;4.03;;;12.40;99.90;;;;;;4925093;29;20043;-76
2023/11/14 14:04:50;;;;;;;15.30;3.42;;;12.20;99.90;;;;;;4927230;29;20126;-76
2023/11/14 14:07:47;;;;;;;13.90;3.40;;;12.10;99.90;;;;;;4942977;29;20043;-76
2023/11/14 14:10:34;;;;;;;16.00;3.92;;;12.10;99.90;;;;;;4931376;29;20058;-77
2023/11/14 14:13:21;;;;;;;13.48;3.33;;;12.00;99.90;;;;;;4936710;29;20072;-76
2023/11/14 14:16:08;;;;;;;18.87;4.40;;;12.00;99.90;;;;;;4924822;29;20417;-76
2023/11/14 14:18:55;;;;;;;11.05;3.15;;;12.00;99.90;;;;;;4936020;29;20043;-76
2023/11/14 14:21:44;;;;;;;18.75;4.25;;;11.90;99.90;;;;;;4939710;29;20046;-76
2023/11/14 14:24:31;;;;;;;;;;;12.00;99.90;;;;;;4926115;29;20043;-76
2023/11/14 14:27:18;;;;;;;18.65;3.67;;;11.90;99.90;;;;;;4950900;29;20045;-76
2023/11/14 14:30:08;;;;;;;17.55;3.78;;;11.90;99.90;;;;;;4907216;29;20082;-76